Alloway, NJ

8:25 PM EST on January 29, 2015 (GMT -0500)
Salem NJ | Change Station
CLOSE
Current Station
Personal Weather Station
Location: Salem, NJ
Elevation: 25 ft
Nearby Weather Stations
Active Advisory: Special Statement

Elev 25 ft 39.57 °N, 75.46 °W | Updated 22 seconds ago

Snow
Snow
31.5 °F
Feels Like 32 °F
N
3.0
Wind Variable Wind from SSW
Gusts 5.0 mph

Today
High -- | Low -- °F
--% Chance of Precip.
Yesterday
High -- | Low -- °F
Precip. -- in
7:11 AM 5:17 PM
Waxing Gibbous, 78% visible
Pressure 30.09 in
Visibility 9.0 miles
Clouds Few 2200 ft
Scattered Clouds 3500 ft
Overcast 5500 ft
Windchill 32 °F
Dew Point 24 °F
Humidity 75%
Rainfall 0.00 in
Snow Depth Not available.
UV 0 out of 12
Pollen .10 out of 12
Air Quality Not available.
Flu Activity Not available.
METAR KILG 300051Z AUTO 19007KT 9SM UP FEW022 SCT035 OVC055 M01/M04 A3008 RMK AO2 UPB50SNB05E50 SLP188 P0000 T10061039

More Conditions Fewer Conditions

Pressure 30.09 in
Visibility 9.0 miles
Clouds Few 2200 ft
Scattered Clouds 3500 ft
Overcast 5500 ft
Windchill 32 °F
Dew Point 24 °F
Humidity 75%
Rainfall 0.00 in
Snow Depth Not available.
UV 0 out of 12
Pollen .10 out of 12
Air Quality Not available.
Flu Activity Not available.
METAR KILG 300051Z AUTO 19007KT 9SM UP FEW022 SCT035 OVC055 M01/M04 A3008 RMK AO2 UPB50SNB05E50 SLP188 P0000 T10061039

More Conditions Fewer Conditions

Nowcast | as of 8:23 PM EST on January 29, 2015

Areas of light snow, with some sleet mixing in, will continue to push eastward through the evening hours. Generally a light accumulation of less than an inch is expected with most of the snowfall occurring in southeast Pennsylvania into northern New Jersey. It is entirely possible that a few spots may experience a light freezing drizzle/rain this evening as the snow winds down...across southeast Pennsylvania. Please use extra caution while traveling this evening as some untreated Road surfaces will become slick.

×

10-Day Weather Forecast

Almanac

Astronomy

Jan. 29, 2015 Rise Set
Actual Time
Civil Twilight
Nautical Twilight
Astronomical Twilight
Moon
Length of Visible Light
Length of Day
Tomorrow will be .
, % of the Moon is Illuminated

Today's Extremes

State Highs State Lows

Community

WunderPhotos

Upload Photos

1,791,668 photos uploaded!

WunderBlogs® & News

Nearby

Air Quality

  Air Quality AQ Index Pollutant
Not available.

Snow Depth

Station Depth Elevation

Earthquake Activity

City Distance Mag. Time & Date
Minimum magnitude displayed is 2.5.

Coastal Water Temperatures

Place Temperature

Nearby Weather Stations